Time;durP1;ratioP1;P1;durP2;ratioP2;P2;SDS_P1;SDS_P2;PMS_P1;PMS_P2;Temp;Humidity;BMP_temperature;BMP_pressure;BME280_temperature;BME280_humidity;BME280_pressure;Samples;Min_cycle;Max_cycle;Signal;HPM_P1;HPM_P2
2021/01/18 00:01:41;;;;;;;14.83;3.70;;;26.70;70.90;;;;;;5050952;28;20168;-72
2021/01/18 00:04:09;;;;;;;12.43;3.90;;;26.90;71.50;;;;;;5052568;28;20530;-70
2021/01/18 00:06:38;;;;;;;12.23;4.07;;;27.10;69.60;;;;;;5052670;28;20215;-71
2021/01/18 00:09:05;;;;;;;10.90;4.50;;;27.30;69.70;;;;;;5052433;28;20191;-67
2021/01/18 00:11:33;;;;;;;7.50;4.37;;;27.50;69.60;;;;;;5051736;28;20244;-70
2021/01/18 00:14:00;;;;;;;12.77;4.50;;;27.40;68.20;;;;;;5052744;28;20183;-68
2021/01/18 00:16:27;;;;;;;7.93;4.40;;;27.30;66.90;;;;;;5052282;28;20168;-68
2021/01/18 00:18:54;;;;;;;13.27;4.77;;;27.40;67.20;;;;;;5052512;28;20250;-70
2021/01/18 00:21:22;;;;;;;11.70;4.03;;;27.40;67.20;;;;;;5051026;28;20180;-70
2021/01/18 00:23:50;;;;;;;14.33;3.83;;;27.70;67.80;;;;;;5052572;28;20184;-68
2021/01/18 00:26:20;;;;;;;9.90;4.03;;;27.70;67.60;;;;;;5056956;28;20230;-67
2021/01/18 00:28:47;;;;;;;7.53;3.40;;;27.90;67.30;;;;;;5049823;28;20244;-69
2021/01/18 00:31:15;;;;;;;9.10;4.00;;;27.90;64.40;;;;;;5050975;28;20583;-69
2021/01/18 00:33:42;;;;;;;7.50;3.33;;;28.00;66.20;;;;;;5050994;28;20195;-68
2021/01/18 00:36:09;;;;;;;13.50;3.87;;;28.10;65.20;;;;;;5051440;28;20689;-68
2021/01/18 00:38:37;;;;;;;12.17;3.50;;;27.90;65.00;;;;;;5051342;28;20257;-67
2021/01/18 00:41:05;;;;;;;11.70;3.40;;;27.80;65.40;;;;;;5045249;28;20271;-67
2021/01/18 00:43:32;;;;;;;13.73;3.80;;;28.00;64.70;;;;;;5041310;28;20270;-68
2021/01/18 00:46:00;;;;;;;8.37;3.33;;;28.40;64.90;;;;;;5048165;28;20208;-68
2021/01/18 00:48:28;;;;;;;10.13;2.97;;;28.30;63.20;;;;;;5050776;28;20194;-67
2021/01/18 00:50:56;;;;;;;11.67;3.80;;;28.40;64.20;;;;;;5051894;28;20199;-67
2021/01/18 00:53:23;;;;;;;8.73;3.37;;;28.70;63.60;;;;;;5050655;28;20638;-69
2021/01/18 00:55:50;;;;;;;9.70;3.03;;;28.60;63.80;;;;;;5051799;28;20176;-69
2021/01/18 00:58:17;;;;;;;13.20;3.20;;;28.40;65.50;;;;;;5051891;28;20187;-69
2021/01/18 01:00:45;;;;;;;7.23;2.90;;;28.70;67.30;;;;;;5050694;28;20184;-72
2021/01/18 01:03:12;;;;;;;13.17;3.13;;;28.90;70.30;;;;;;5052498;28;20182;-68
2021/01/18 01:05:39;;;;;;;16.27;4.00;;;29.00;68.40;;;;;;5038684;28;20173;-70
2021/01/18 01:08:07;;;;;;;11.90;3.77;;;29.00;71.10;;;;;;5052101;28;20180;-67
2021/01/18 01:10:35;;;;;;;14.27;3.00;;;29.00;70.60;;;;;;5054440;28;20175;-68
2021/01/18 01:13:06;;;;;;;13.23;3.43;;;29.00;71.80;;;;;;5055421;28;20184;-68
2021/01/18 01:15:34;;;;;;;16.23;3.53;;;29.10;71.50;;;;;;5055927;28;20646;-68
2021/01/18 01:18:04;;;;;;;11.33;3.50;;;29.20;71.50;;;;;;5054674;28;20191;-69
2021/01/18 01:20:31;;;;;;;15.60;3.43;;;29.30;72.40;;;;;;5055553;28;20263;-71
2021/01/18 01:22:59;;;;;;;16.03;3.30;;;29.20;72.80;;;;;;5055109;28;20199;-70
2021/01/18 01:25:27;;;;;;;12.60;3.50;;;29.20;72.70;;;;;;5055093;28;20729;-70
2021/01/18 01:27:55;;;;;;;14.07;3.30;;;29.20;72.50;;;;;;5054928;28;20225;-69
2021/01/18 01:30:24;;;;;;;12.03;3.30;;;28.90;73.40;;;;;;5052924;28;20191;-71
2021/01/18 01:32:54;;;;;;;13.20;3.87;;;29.00;74.20;;;;;;5052474;28;20194;-69
2021/01/18 01:35:27;;;;;;;13.07;2.73;;;29.10;74.10;;;;;;5069099;28;20214;-68
2021/01/18 01:37:56;;;;;;;17.23;2.53;;;29.00;74.20;;;;;;5053826;28;20172;-69
2021/01/18 01:40:24;;;;;;;17.23;3.27;;;28.80;74.90;;;;;;5055222;28;20184;-68
2021/01/18 01:42:51;;;;;;;12.43;3.10;;;29.20;73.60;;;;;;5055239;28;20176;-68
2021/01/18 01:45:21;;;;;;;9.27;2.67;;;29.40;72.40;;;;;;5054213;28;20270;-67
2021/01/18 01:47:52;;;;;;;11.13;3.50;;;29.40;72.10;;;;;;5051891;28;20256;-69
2021/01/18 01:50:21;;;;;;;12.23;2.83;;;29.40;72.90;;;;;;5046082;28;20172;-68
2021/01/18 01:53:00;;;;;;;9.27;2.77;;;29.50;72.30;;;;;;5053302;28;20533;-71
2021/01/18 01:55:31;;;;;;;17.67;9.33;;;29.70;71.80;;;;;;5054586;28;20183;-68
2021/01/18 01:58:01;;;;;;;13.90;3.77;;;29.30;73.00;;;;;;5054633;28;20176;-67
2021/01/18 02:00:38;;;;;;;15.67;3.43;;;29.50;72.50;;;;;;5052658;28;20184;-69
2021/01/18 02:03:09;;;;;;;13.17;3.13;;;29.70;71.80;;;;;;5055007;28;20248;-70
2021/01/18 02:05:38;;;;;;;15.93;3.40;;;29.50;71.60;;;;;;5054647;28;20192;-69
2021/01/18 02:08:07;;;;;;;16.17;3.37;;;29.40;72.60;;;;;;5054029;28;20206;-71
2021/01/18 02:10:36;;;;;;;15.13;3.37;;;29.50;71.40;;;;;;5054667;28;20180;-71
2021/01/18 02:13:30;;;;;;;11.07;2.87;;;29.20;73.10;;;;;;5051341;28;20191;-68
2021/01/18 02:16:15;;;;;;;13.27;2.80;;;29.60;72.50;;;;;;5052698;28;20187;-68
2021/01/18 02:18:54;;;;;;;12.23;2.87;;;29.50;72.30;;;;;;5052904;28;20258;-69
2021/01/18 02:21:33;;;;;;;14.33;3.07;;;29.50;71.80;;;;;;5052075;28;20616;-68
2021/01/18 02:24:33;;;;;;;16.17;3.00;;;29.20;72.60;;;;;;5049135;28;20262;-70
2021/01/18 02:27:39;;;;;;;17.83;3.37;;;29.40;73.00;;;;;;5050656;28;20231;-69
2021/01/18 02:30:23;;;;;;;11.27;2.30;;;29.70;72.20;;;;;;5051138;28;20693;-69
2021/01/18 02:33:08;;;;;;;10.40;2.80;;;29.80;70.90;;;;;;5052805;28;20187;-70
2021/01/18 02:35:57;;;;;;;14.33;3.27;;;29.90;70.40;;;;;;5053473;28;20186;-67
2021/01/18 02:39:01;;;;;;;16.07;3.73;;;29.90;70.80;;;;;;5052139;28;20183;-68
2021/01/18 02:41:52;;;;;;;14.07;2.67;;;30.10;69.90;;;;;;5054433;28;20272;-66
2021/01/18 02:44:22;;;;;;;12.37;2.93;;;30.30;70.10;;;;;;5051442;28;20188;-67
2021/01/18 02:46:51;;;;;;;13.17;3.00;;;30.10;70.50;;;;;;5053756;28;20249;-68
2021/01/18 02:49:20;;;;;;;15.17;3.27;;;30.10;70.60;;;;;;5059966;28;20550;-68
2021/01/18 02:52:03;;;;;;;14.93;6.23;;;30.00;70.60;;;;;;5053173;28;20191;-68
2021/01/18 02:54:31;;;;;;;15.07;6.60;;;29.90;70.50;;;;;;5052997;28;20448;-68
2021/01/18 02:56:58;;;;;;;15.10;2.40;;;30.10;68.90;;;;;;5052107;28;20610;-70
2021/01/18 02:59:26;;;;;;;12.47;3.40;;;30.00;70.00;;;;;;5049877;28;20195;-70
2021/01/18 03:02:22;;;;;;;11.33;2.77;;;30.30;70.60;;;;;;5053287;28;20192;-69
2021/01/18 03:05:10;;;;;;;10.43;2.73;;;30.30;70.50;;;;;;5035474;28;20282;-69
2021/01/18 03:07:53;;;;;;;15.70;3.50;;;30.30;70.40;;;;;;5044685;28;20234;-68
2021/01/18 03:10:27;;;;;;;13.13;3.57;;;30.40;70.50;;;;;;5052933;28;20176;-69
2021/01/18 03:13:00;;;;;;;8.37;2.53;;;30.60;70.70;;;;;;5051409;28;20184;-68
2021/01/18 03:15:33;;;;;;;10.93;2.97;;;30.50;70.00;;;;;;5048842;28;20180;-68
2021/01/18 03:18:02;;;;;;;12.23;3.00;;;30.50;70.80;;;;;;5053969;28;20184;-68
2021/01/18 03:20:33;;;;;;;13.57;3.00;;;30.60;70.60;;;;;;5052765;28;20184;-69
2021/01/18 03:23:07;;;;;;;10.40;2.72;;;30.40;70.60;;;;;;5050945;28;20566;-68
2021/01/18 03:26:07;;;;;;;19.63;3.53;;;30.30;70.80;;;;;;5052838;28;20257;-70
2021/01/18 03:28:34;;;;;;;15.15;3.67;;;30.40;71.00;;;;;;5013160;28;20291;-69
2021/01/18 03:31:02;;;;;;;12.37;4.90;;;30.80;69.80;;;;;;5051889;28;20184;-70
2021/01/18 03:33:29;;;;;;;15.80;3.60;;;30.90;69.30;;;;;;5052676;28;20524;-71
2021/01/18 03:35:57;;;;;;;9.15;3.10;;;30.70;69.70;;;;;;5051781;28;20190;-69
2021/01/18 03:38:25;;;;;;;12.80;3.30;;;30.80;69.60;;;;;;5046807;28;20180;-68
2021/01/18 03:40:54;;;;;;;11.23;2.85;;;30.90;68.80;;;;;;5051094;28;20627;-68
2021/01/18 03:43:22;;;;;;;11.60;3.07;;;30.80;68.90;;;;;;5052110;28;20191;-68
2021/01/18 03:45:50;;;;;;;23.13;4.50;;;30.80;68.90;;;;;;5048818;28;20231;-68
2021/01/18 03:48:18;;;;;;;10.18;2.50;;;30.50;69.50;;;;;;5051570;28;20658;-67
2021/01/18 03:50:45;;;;;;;16.20;3.10;;;30.70;69.20;;;;;;5051360;28;20184;-69
2021/01/18 03:53:12;;;;;;;15.10;3.20;;;30.60;68.90;;;;;;5047955;28;20570;-68
2021/01/18 03:55:40;;;;;;;12.02;2.90;;;30.60;69.20;;;;;;5051221;28;20305;-68
2021/01/18 03:58:08;;;;;;;10.38;2.50;;;31.00;67.60;;;;;;5051063;28;20284;-69
2021/01/18 04:00:37;;;;;;;14.27;2.67;;;31.00;67.20;;;;;;5047014;28;20187;-71
2021/01/18 04:03:05;;;;;;;13.10;2.70;;;31.00;66.70;;;;;;5053176;28;20237;-70
2021/01/18 04:05:32;;;;;;;7.95;2.50;;;30.70;67.70;;;;;;5067134;28;20548;-67
2021/01/18 04:07:59;;;;;;;10.70;3.00;;;30.90;66.70;;;;;;5056233;28;20250;-70
2021/01/18 04:10:30;;;;;;;11.93;2.78;;;31.00;67.60;;;;;;5052093;28;20178;-68
2021/01/18 04:12:59;;;;;;;12.40;2.97;;;30.90;66.90;;;;;;5051049;28;20187;-68
2021/01/18 04:15:27;;;;;;;10.98;2.83;;;30.70;68.10;;;;;;5051289;28;20666;-70
2021/01/18 04:17:57;;;;;;;9.07;3.10;;;30.90;68.10;;;;;;5051116;28;20192;-70
2021/01/18 04:20:25;;;;;;;13.25;3.35;;;31.20;67.10;;;;;;5044890;28;20725;-72
2021/01/18 04:22:58;;;;;;;9.55;2.70;;;30.90;68.10;;;;;;5050885;28;20191;-70
2021/01/18 04:25:28;;;;;;;13.50;2.75;;;31.20;68.30;;;;;;5050866;28;20212;-69
2021/01/18 04:28:01;;;;;;;9.38;2.42;;;31.40;67.00;;;;;;5050872;28;20219;-69
2021/01/18 04:30:32;;;;;;;9.77;2.58;;;31.20;67.90;;;;;;5051371;28;20192;-68
2021/01/18 04:33:05;;;;;;;15.23;2.70;;;31.30;67.20;;;;;;5050532;28;20190;-68
2021/01/18 04:35:35;;;;;;;16.65;3.63;;;31.70;67.00;;;;;;5051124;28;20263;-68
2021/01/18 04:38:03;;;;;;;11.27;3.25;;;31.80;66.60;;;;;;5051495;28;20267;-69
2021/01/18 04:40:32;;;;;;;10.40;3.08;;;31.90;66.40;;;;;;5050885;28;20590;-68
2021/01/18 04:43:00;;;;;;;8.48;2.65;;;32.00;66.00;;;;;;5051664;28;20245;-68
2021/01/18 04:45:29;;;;;;;13.45;2.67;;;32.00;65.70;;;;;;5055909;28;20241;-66
2021/01/18 04:47:59;;;;;;;11.40;3.13;;;31.90;66.40;;;;;;5055507;28;20207;-68
2021/01/18 04:50:29;;;;;;;12.82;3.25;;;32.00;64.60;;;;;;5053674;28;20188;-68
2021/01/18 04:53:17;;;;;;;11.73;2.63;;;32.20;65.40;;;;;;5054859;28;20791;-68
2021/01/18 04:55:44;;;;;;;12.30;3.03;;;32.60;63.80;;;;;;5055332;28;20218;-68
2021/01/18 04:58:13;;;;;;;8.57;2.92;;;31.80;64.60;;;;;;5054221;28;20191;-68
2021/01/18 05:00:42;;;;;;;11.25;2.85;;;31.80;65.50;;;;;;5055370;28;20179;-67
2021/01/18 05:03:11;;;;;;;11.65;2.33;;;31.80;65.20;;;;;;5054708;28;20354;-68
2021/01/18 05:05:47;;;;;;;11.77;3.08;;;31.90;66.20;;;;;;5053830;28;20184;-67
2021/01/18 05:08:58;;;;;;;11.20;2.67;;;31.80;66.10;;;;;;5055017;28;20215;-68
2021/01/18 05:11:25;;;;;;;15.13;3.15;;;31.40;67.50;;;;;;5038475;28;20318;-69
2021/01/18 05:13:59;;;;;;;8.63;2.38;;;31.80;66.70;;;;;;5054456;28;20665;-68
2021/01/18 05:16:34;;;;;;;14.05;3.45;;;31.20;68.10;;;;;;5055111;28;20190;-67
2021/01/18 05:19:12;;;;;;;13.52;2.97;;;31.00;68.60;;;;;;5047938;28;20218;-67
2021/01/18 05:21:41;;;;;;;12.88;4.20;;;30.70;69.00;;;;;;5043284;28;20183;-69
2021/01/18 05:24:09;;;;;;;10.40;2.67;;;31.00;68.90;;;;;;5055462;28;20180;-66
2021/01/18 05:26:37;;;;;;;11.13;2.70;;;31.40;67.60;;;;;;5054760;28;20234;-68
2021/01/18 05:29:05;;;;;;;9.45;2.55;;;31.50;67.10;;;;;;5041243;28;20295;-68
2021/01/18 05:31:34;;;;;;;9.43;2.60;;;31.50;68.10;;;;;;5055240;28;20195;-68
2021/01/18 05:34:06;;;;;;;8.95;2.90;;;31.20;67.00;;;;;;5054556;28;20196;-68
2021/01/18 05:36:45;;;;;;;11.95;2.67;;;31.50;66.60;;;;;;5055142;28;20206;-67
2021/01/18 05:39:25;;;;;;;9.57;2.13;;;31.10;66.60;;;;;;5055096;28;20176;-67
2021/01/18 05:41:55;;;;;;;10.05;2.55;;;31.20;66.40;;;;;;5055556;28;20171;-68
2021/01/18 05:44:33;;;;;;;9.27;2.50;;;31.30;66.10;;;;;;5054201;28;20195;-68
2021/01/18 05:47:14;;;;;;;6.95;2.08;;;31.40;66.10;;;;;;5054760;28;20208;-67
2021/01/18 05:49:49;;;;;;;13.60;2.97;;;32.20;65.20;;;;;;5055398;28;20704;-69
2021/01/18 05:52:30;;;;;;;13.93;4.07;;;32.00;64.40;;;;;;5051346;28;20278;-72
2021/01/18 05:55:18;;;;;;;10.90;2.90;;;31.60;65.50;;;;;;5051144;28;20176;-69
2021/01/18 05:58:00;;;;;;;14.30;2.88;;;31.40;65.70;;;;;;5048819;28;20623;-71
2021/01/18 06:00:31;;;;;;;10.32;2.20;;;31.10;66.10;;;;;;5049742;28;20176;-71
2021/01/18 06:03:01;;;;;;;8.93;2.58;;;31.00;66.60;;;;;;5051971;28;20596;-68
2021/01/18 06:05:33;;;;;;;8.70;2.10;;;30.90;66.20;;;;;;5047898;28;20194;-68
2021/01/18 06:08:19;;;;;;;10.18;2.85;;;30.30;67.70;;;;;;5054329;28;20223;-66
2021/01/18 06:10:56;;;;;;;11.65;2.60;;;30.40;67.60;;;;;;5050612;28;20207;-67
2021/01/18 06:13:27;;;;;;;8.27;2.43;;;30.60;66.00;;;;;;5047975;28;20231;-68
2021/01/18 06:16:05;;;;;;;9.82;2.50;;;30.10;67.80;;;;;;5052534;28;20192;-67
2021/01/18 06:18:37;;;;;;;11.00;2.77;;;31.10;66.90;;;;;;5051492;28;20266;-67
2021/01/18 06:21:06;;;;;;;7.25;2.45;;;31.30;65.10;;;;;;5049085;28;20324;-68
2021/01/18 06:23:34;;;;;;;7.20;2.50;;;31.70;65.00;;;;;;5053286;28;20176;-67
2021/01/18 06:26:02;;;;;;;9.68;2.60;;;31.60;64.40;;;;;;5046284;28;20219;-68
2021/01/18 06:28:37;;;;;;;9.82;2.50;;;31.40;64.40;;;;;;5050602;28;20556;-68
2021/01/18 06:31:12;;;;;;;8.52;2.40;;;31.30;64.70;;;;;;5048741;28;20558;-69
2021/01/18 06:33:47;;;;;;;9.60;3.25;;;31.10;65.60;;;;;;5051769;28;20196;-69
2021/01/18 06:36:21;;;;;;;10.40;3.78;;;31.30;65.80;;;;;;5046688;28;20183;-68
2021/01/18 06:39:01;;;;;;;8.45;3.25;;;31.60;64.20;;;;;;5051779;28;20196;-68
2021/01/18 06:41:30;;;;;;;14.88;4.28;;;31.30;64.50;;;;;;5049161;28;20184;-68
2021/01/18 06:43:58;;;;;;;12.25;3.45;;;31.50;64.00;;;;;;5053145;28;20833;-67
2021/01/18 06:46:30;;;;;;;6.68;2.75;;;31.60;63.00;;;;;;5047840;28;20602;-68
2021/01/18 06:48:58;;;;;;;8.73;3.08;;;31.30;63.90;;;;;;5049598;28;20275;-67
2021/01/18 06:51:27;;;;;;;10.05;2.83;;;31.20;65.00;;;;;;5050726;28;20180;-68
2021/01/18 06:53:56;;;;;;;7.35;2.75;;;31.20;64.90;;;;;;5046904;28;20179;-70
2021/01/18 06:56:27;;;;;;;8.70;2.92;;;31.10;64.70;;;;;;5050063;28;20191;-67
2021/01/18 06:59:09;;;;;;;9.20;2.70;;;31.10;64.90;;;;;;5044108;28;20708;-71
2021/01/18 07:01:40;;;;;;;6.80;2.92;;;31.10;64.70;;;;;;5052492;28;20180;-67
2021/01/18 07:04:14;;;;;;;12.85;5.93;;;31.20;64.40;;;;;;5052780;28;20540;-68
2021/01/18 07:06:57;;;;;;;12.88;4.30;;;31.30;63.20;;;;;;5052538;28;20559;-69
2021/01/18 07:09:27;;;;;;;13.38;5.72;;;31.50;62.10;;;;;;5050045;28;20424;-69
2021/01/18 07:12:02;;;;;;;10.90;4.80;;;31.40;61.60;;;;;;5053460;28;20661;-68
2021/01/18 07:14:31;;;;;;;6.18;3.28;;;31.60;61.60;;;;;;5051688;28;20198;-70
2021/01/18 07:17:09;;;;;;;8.20;2.83;;;31.20;62.00;;;;;;5048347;28;20180;-66
2021/01/18 07:19:46;;;;;;;7.18;2.92;;;31.40;61.40;;;;;;5052696;28;20198;-69
2021/01/18 07:22:23;;;;;;;14.13;3.25;;;31.00;61.10;;;;;;5052729;28;20584;-68
2021/01/18 07:24:59;;;;;;;12.57;3.60;;;30.80;63.00;;;;;;5049356;28;20194;-69
2021/01/18 07:27:30;;;;;;;10.90;3.40;;;30.80;61.80;;;;;;5052868;28;20239;-68
2021/01/18 07:30:01;;;;;;;7.95;3.35;;;30.50;63.00;;;;;;5049431;28;20591;-70
2021/01/18 07:32:29;;;;;;;10.17;3.60;;;30.30;62.50;;;;;;5042396;28;20188;-69
2021/01/18 07:34:57;;;;;;;10.25;3.75;;;29.90;62.90;;;;;;5051778;28;20245;-70
2021/01/18 07:37:26;;;;;;;7.57;3.83;;;29.50;63.20;;;;;;5048109;28;20223;-71
2021/01/18 07:39:53;;;;;;;7.78;3.50;;;29.30;64.40;;;;;;5042131;28;20553;-70
2021/01/18 07:42:33;;;;;;;10.03;3.70;;;29.00;63.90;;;;;;5049831;28;20202;-68
2021/01/18 07:45:12;;;;;;;9.60;3.20;;;28.40;65.10;;;;;;5051143;28;20791;-67
2021/01/18 07:47:55;;;;;;;7.00;3.17;;;28.20;63.70;;;;;;5051717;28;20309;-67
2021/01/18 07:50:29;;;;;;;6.03;3.27;;;28.20;65.00;;;;;;5052220;28;20532;-67
2021/01/18 07:53:05;;;;;;;11.03;5.30;;;28.20;65.40;;;;;;5052535;28;20576;-68
2021/01/18 07:55:33;;;;;;;11.27;5.30;;;28.10;63.90;;;;;;5053257;28;20190;-68
2021/01/18 07:58:20;;;;;;;16.17;4.03;;;28.00;65.60;;;;;;5052047;28;20741;-68
2021/01/18 08:00:49;;;;;;;8.27;3.30;;;28.00;65.90;;;;;;5050314;28;20187;-69
2021/01/18 08:03:22;;;;;;;9.30;3.83;;;27.80;66.30;;;;;;5051197;28;20242;-68
2021/01/18 08:05:52;;;;;;;10.47;3.67;;;27.60;67.40;;;;;;5051686;28;20222;-68
2021/01/18 08:08:33;;;;;;;12.73;4.03;;;27.50;68.30;;;;;;5052053;28;20792;-68
2021/01/18 08:11:26;;;;;;;13.73;4.77;;;27.30;70.80;;;;;;5052545;28;20642;-68
2021/01/18 08:13:59;;;;;;;15.33;4.97;;;27.10;72.80;;;;;;5049540;28;20593;-69
2021/01/18 08:16:40;;;;;;;6.87;3.87;;;27.00;75.10;;;;;;5052269;28;20266;-71
2021/01/18 08:19:14;;;;;;;9.70;5.10;;;27.00;75.90;;;;;;5045788;28;20634;-70
2021/01/18 08:21:45;;;;;;;10.90;4.33;;;26.70;78.10;;;;;;5052471;28;20241;-69
2021/01/18 08:24:38;;;;;;;12.73;4.80;;;26.60;80.50;;;;;;5052369;28;20194;-70
2021/01/18 08:27:08;;;;;;;8.27;4.47;;;26.30;80.50;;;;;;5039348;28;20238;-69
2021/01/18 08:29:53;;;;;;;14.73;4.97;;;26.20;80.20;;;;;;5051711;28;20203;-66
2021/01/18 08:32:24;;;;;;;10.43;4.40;;;26.10;81.10;;;;;;5047714;28;20532;-67
2021/01/18 08:34:59;;;;;;;10.10;4.60;;;26.10;81.30;;;;;;5043798;28;20188;-68
2021/01/18 08:37:28;;;;;;;14.63;4.50;;;26.10;82.00;;;;;;5050322;28;20190;-67
2021/01/18 08:40:14;;;;;;;8.10;3.83;;;26.10;82.10;;;;;;5051839;28;20176;-66
2021/01/18 08:42:44;;;;;;;14.27;5.50;;;25.90;83.30;;;;;;5049872;28;20183;-67
2021/01/18 08:45:22;;;;;;;7.63;3.93;;;25.80;83.90;;;;;;5046140;28;20195;-68
2021/01/18 08:48:00;;;;;;;17.90;4.93;;;25.80;83.90;;;;;;5049971;28;20219;-67
2021/01/18 08:50:28;;;;;;;12.73;4.00;;;25.70;84.20;;;;;;5043484;28;20179;-67
2021/01/18 08:52:58;;;;;;;11.03;3.00;;;25.60;84.00;;;;;;5050408;28;20191;-67
2021/01/18 08:55:31;;;;;;;11.20;3.57;;;25.60;83.90;;;;;;5050662;28;20184;-70
2021/01/18 08:58:00;;;;;;;7.90;3.20;;;25.50;83.90;;;;;;5047810;28;20188;-68
2021/01/18 09:00:57;;;;;;;10.07;3.37;;;25.50;84.60;;;;;;5052051;28;20183;-71
2021/01/18 09:03:25;;;;;;;7.20;3.30;;;25.50;85.40;;;;;;5046982;28;20726;-69
2021/01/18 09:05:57;;;;;;;10.53;3.50;;;25.40;85.80;;;;;;5050423;28;20180;-69
2021/01/18 09:08:26;;;;;;;9.13;3.67;;;25.30;86.10;;;;;;5051860;28;20218;-69
2021/01/18 09:11:08;;;;;;;13.27;5.07;;;25.30;86.50;;;;;;5051437;28;20208;-67
2021/01/18 09:13:38;;;;;;;10.67;5.40;;;25.20;87.00;;;;;;5050478;28;20196;-69
2021/01/18 09:16:08;;;;;;;13.97;3.50;;;25.20;87.30;;;;;;5048377;28;20553;-68
2021/01/18 09:18:37;;;;;;;8.83;3.13;;;25.20;88.30;;;;;;5051507;28;20175;-69
2021/01/18 09:21:08;;;;;;;10.67;3.00;;;25.10;88.90;;;;;;5050946;28;20203;-68
2021/01/18 09:23:36;;;;;;;8.83;3.00;;;25.00;88.90;;;;;;5043166;28;20219;-69
2021/01/18 09:26:16;;;;;;;12.33;3.17;;;24.90;89.00;;;;;;5045478;28;20253;-68
2021/01/18 09:28:54;;;;;;;8.53;3.47;;;24.90;89.50;;;;;;5050286;28;20277;-68
2021/01/18 09:31:22;;;;;;;10.53;3.53;;;24.90;89.90;;;;;;5054565;28;20222;-68
2021/01/18 09:33:52;;;;;;;10.27;3.27;;;24.90;90.10;;;;;;5055356;28;20190;-68
2021/01/18 09:36:24;;;;;;;11.87;3.50;;;24.80;90.20;;;;;;5055094;28;20674;-66
2021/01/18 09:38:52;;;;;;;11.07;3.87;;;24.80;90.40;;;;;;5048094;28;20184;-68
2021/01/18 09:41:19;;;;;;;15.77;4.10;;;24.80;90.70;;;;;;5054839;28;20184;-67
2021/01/18 09:43:47;;;;;;;11.67;3.77;;;24.70;91.00;;;;;;5049282;28;20180;-66
2021/01/18 09:46:15;;;;;;;9.90;4.17;;;24.70;91.20;;;;;;5054795;28;20203;-65
2021/01/18 09:48:48;;;;;;;13.33;4.13;;;24.70;91.30;;;;;;5053361;28;20186;-67
2021/01/18 09:51:16;;;;;;;11.37;4.70;;;24.70;91.50;;;;;;5054311;28;20658;-67
2021/01/18 09:53:44;;;;;;;14.33;4.90;;;24.60;92.10;;;;;;5054564;28;20187;-67
2021/01/18 09:56:16;;;;;;;8.77;4.33;;;24.60;92.30;;;;;;5054487;28;20183;-67
2021/01/18 09:58:47;;;;;;;16.57;5.27;;;24.50;92.70;;;;;;5054619;28;20325;-66
2021/01/18 10:01:18;;;;;;;19.50;5.63;;;24.50;93.10;;;;;;5054436;28;20176;-69
2021/01/18 10:03:55;;;;;;;17.03;5.43;;;24.50;93.40;;;;;;5046530;28;20649;-67
2021/01/18 10:06:27;;;;;;;17.37;4.80;;;24.50;93.60;;;;;;5052016;28;20200;-68
2021/01/18 10:09:09;;;;;;;12.47;4.77;;;24.50;94.00;;;;;;5052941;28;20191;-70
2021/01/18 10:11:42;;;;;;;16.67;7.37;;;24.50;94.10;;;;;;5051791;28;20180;-67
2021/01/18 10:14:29;;;;;;;15.60;5.50;;;24.50;94.20;;;;;;5054263;28;20179;-68
2021/01/18 10:17:05;;;;;;;11.83;4.43;;;24.40;94.00;;;;;;5053024;28;20183;-68
2021/01/18 10:19:35;;;;;;;12.83;4.73;;;24.40;94.10;;;;;;5054720;28;20301;-68
2021/01/18 10:22:04;;;;;;;12.37;4.27;;;24.40;94.10;;;;;;5053269;28;20573;-68
2021/01/18 10:24:35;;;;;;;15.53;5.30;;;24.40;93.70;;;;;;5054332;28;20210;-67
2021/01/18 10:27:10;;;;;;;14.27;4.73;;;24.50;93.80;;;;;;5049213;28;20227;-67
2021/01/18 10:29:38;;;;;;;10.03;4.00;;;24.50;93.70;;;;;;5053873;28;20541;-67
2021/01/18 10:32:06;;;;;;;13.77;4.57;;;24.50;93.30;;;;;;5053445;28;20176;-68
2021/01/18 10:34:37;;;;;;;18.50;4.77;;;24.50;93.20;;;;;;5054005;28;20646;-68
2021/01/18 10:37:15;;;;;;;12.77;4.73;;;24.50;93.10;;;;;;5052525;28;20587;-67
2021/01/18 10:39:45;;;;;;;14.60;4.43;;;24.50;93.20;;;;;;5040405;28;20176;-71
2021/01/18 10:42:15;;;;;;;8.37;4.70;;;24.50;93.20;;;;;;5048876;28;20227;-70
2021/01/18 10:44:52;;;;;;;12.13;4.33;;;24.50;93.10;;;;;;5050622;28;20183;-72
2021/01/18 10:47:23;;;;;;;31.83;23.17;;;24.50;93.00;;;;;;5051768;28;20200;-70
2021/01/18 10:49:55;;;;;;;13.33;5.10;;;24.40;92.90;;;;;;5053288;28;20270;-71
2021/01/18 10:52:41;;;;;;;9.03;4.83;;;24.50;92.60;;;;;;5042465;28;20275;-70
2021/01/18 10:55:12;;;;;;;18.93;5.90;;;24.50;92.50;;;;;;5054178;28;20180;-71
2021/01/18 10:57:41;;;;;;;16.50;5.60;;;24.40;92.30;;;;;;5050803;28;20192;-69
2021/01/18 11:00:17;;;;;;;15.70;4.97;;;24.40;92.60;;;;;;5052283;28;20180;-72
2021/01/18 11:02:57;;;;;;;21.13;6.07;;;24.30;92.90;;;;;;5053323;28;20171;-71
2021/01/18 11:05:40;;;;;;;17.87;7.97;;;24.30;93.10;;;;;;5052788;28;20242;-67
2021/01/18 11:08:09;;;;;;;14.70;4.97;;;24.20;93.20;;;;;;5052101;28;20709;-70
2021/01/18 11:10:44;;;;;;;14.93;5.43;;;24.20;93.30;;;;;;5052900;28;20263;-70
2021/01/18 11:13:17;;;;;;;15.50;5.90;;;24.20;93.40;;;;;;5051986;28;20187;-67
2021/01/18 11:15:47;;;;;;;12.63;4.82;;;24.20;93.50;;;;;;5052042;28;20414;-68
2021/01/18 11:18:15;;;;;;;13.33;5.20;;;24.10;93.50;;;;;;5052516;28;20271;-69
2021/01/18 11:20:46;;;;;;;13.80;7.73;;;24.20;93.60;;;;;;5051805;28;20330;-67
2021/01/18 11:23:13;;;;;;;12.37;5.03;;;24.10;93.60;;;;;;5052584;28;20187;-71
2021/01/18 11:25:40;;;;;;;15.10;5.77;;;24.10;93.50;;;;;;5053135;28;20697;-69
2021/01/18 11:28:13;;;;;;;10.80;4.00;;;24.10;93.70;;;;;;5052664;28;20212;-69
2021/01/18 11:30:41;;;;;;;14.27;4.63;;;24.00;93.10;;;;;;5052885;28;20180;-69
2021/01/18 11:33:10;;;;;;;15.40;4.60;;;24.00;93.20;;;;;;5053268;28;20177;-72
2021/01/18 11:35:42;;;;;;;11.80;3.90;;;24.00;93.20;;;;;;5052966;28;20267;-68
2021/01/18 11:38:13;;;;;;;12.77;4.23;;;24.00;93.10;;;;;;5047979;28;20260;-67
2021/01/18 11:40:42;;;;;;;14.40;5.07;;;24.00;93.20;;;;;;5045707;28;20183;-66
2021/01/18 11:43:10;;;;;;;14.70;4.27;;;24.00;93.20;;;;;;5052570;28;20183;-67
2021/01/18 11:45:37;;;;;;;8.47;4.30;;;24.00;93.20;;;;;;5052970;28;20198;-67
2021/01/18 11:48:08;;;;;;;12.83;4.53;;;24.00;93.00;;;;;;5052680;28;20611;-69
2021/01/18 11:50:35;;;;;;;16.83;4.47;;;24.00;93.20;;;;;;5053430;28;20554;-68
2021/01/18 11:53:03;;;;;;;11.97;4.43;;;23.90;93.10;;;;;;5043986;28;20567;-67
2021/01/18 11:55:30;;;;;;;12.17;4.00;;;23.90;93.10;;;;;;5065304;28;20537;-67
2021/01/18 11:57:58;;;;;;;13.50;4.30;;;23.90;93.00;;;;;;5048349;28;20250;-69
2021/01/18 12:00:27;;;;;;;15.87;4.07;;;23.90;92.90;;;;;;5034675;28;20192;-69
2021/01/18 12:02:59;;;;;;;12.00;4.33;;;23.90;92.80;;;;;;5036331;28;20176;-68
2021/01/18 12:05:28;;;;;;;11.13;3.90;;;23.90;92.70;;;;;;5047215;28;20187;-68
2021/01/18 12:08:02;;;;;;;11.13;4.40;;;23.90;92.80;;;;;;5038920;28;20231;-68
2021/01/18 12:10:38;;;;;;;7.33;3.90;;;23.80;92.90;;;;;;5033534;28;20641;-68
2021/01/18 12:13:06;;;;;;;8.27;3.70;;;23.70;93.10;;;;;;5042771;28;20184;-70
2021/01/18 12:15:35;;;;;;;14.37;3.97;;;23.70;93.10;;;;;;5049358;28;20193;-68
2021/01/18 12:18:03;;;;;;;10.30;4.23;;;23.60;93.10;;;;;;5045701;28;20551;-66
2021/01/18 12:20:31;;;;;;;9.60;3.77;;;23.60;93.20;;;;;;5050264;28;20192;-67
2021/01/18 12:22:58;;;;;;;11.73;3.70;;;23.60;93.30;;;;;;5052507;28;20241;-67
2021/01/18 12:25:26;;;;;;;7.47;4.13;;;23.60;93.20;;;;;;5052283;28;20231;-68
2021/01/18 12:27:56;;;;;;;8.60;4.00;;;23.60;93.30;;;;;;5052272;28;20212;-69
2021/01/18 12:30:24;;;;;;;16.27;4.40;;;23.60;93.40;;;;;;5052458;28;20194;-68
2021/01/18 12:32:52;;;;;;;10.60;3.93;;;23.60;93.40;;;;;;5052519;28;20328;-67
2021/01/18 12:35:19;;;;;;;9.37;4.00;;;23.60;93.20;;;;;;5040610;28;20687;-68
2021/01/18 12:37:47;;;;;;;11.07;4.30;;;23.50;93.20;;;;;;5051073;28;20210;-68
2021/01/18 12:40:14;;;;;;;7.50;3.70;;;23.50;93.20;;;;;;5052497;28;20630;-67
2021/01/18 12:42:47;;;;;;;9.80;3.60;;;23.50;93.20;;;;;;5051950;28;20191;-67
2021/01/18 12:45:17;;;;;;;8.53;3.57;;;23.50;93.20;;;;;;5051404;28;20180;-68
2021/01/18 12:47:44;;;;;;;7.60;3.40;;;23.50;93.20;;;;;;5060471;28;20218;-68
2021/01/18 12:50:12;;;;;;;14.67;5.43;;;23.50;93.40;;;;;;5056124;28;20229;-71
2021/01/18 12:52:42;;;;;;;12.23;4.90;;;23.50;93.50;;;;;;5051919;28;20192;-69
2021/01/18 12:55:13;;;;;;;9.80;4.37;;;23.50;93.50;;;;;;5063613;28;20171;-67
2021/01/18 12:57:40;;;;;;;9.17;4.03;;;23.50;93.40;;;;;;5051943;28;20643;-67
2021/01/18 13:00:08;;;;;;;12.83;4.37;;;23.50;93.30;;;;;;5047764;28;20660;-68
2021/01/18 13:02:40;;;;;;;13.87;4.50;;;23.50;93.60;;;;;;5050810;28;20220;-67
2021/01/18 13:05:08;;;;;;;12.73;5.37;;;23.50;93.50;;;;;;5052072;28;20191;-67
2021/01/18 13:07:35;;;;;;;11.83;4.80;;;23.50;93.50;;;;;;5055394;28;20281;-67